Time;durP1;ratioP1;P1;durP2;ratioP2;P2;SDS_P1;SDS_P2;PMS_P1;PMS_P2;Temp;Humidity;BMP_temperature;BMP_pressure;BME280_temperature;BME280_humidity;BME280_pressure;Samples;Min_cycle;Max_cycle;Signal;HPM_P1;HPM_P2
2023/03/08 00:00:14;;;;;;;;;;;;;;;10.59;43.12;98995.59;4908986;28;99241;-67
2023/03/08 00:02:40;;;;;;;;;;;;;;;10.57;43.16;98996.69;4918205;28;99822;-66
2023/03/08 00:05:06;;;;;;;;;;;;;;;10.57;43.13;99003.94;4922328;28;100076;-67
2023/03/08 00:07:32;;;;;;;;;;;;;;;10.59;43.10;99001.75;4904827;28;98116;-67
2023/03/08 00:09:59;;;;;;;;;;;;;;;10.57;43.15;99006.66;4908737;28;109558;-66
2023/03/08 00:12:25;;;;;;;;;;;;;;;10.56;42.87;99010.44;4906206;28;98189;-66
2023/03/08 00:14:51;;;;;;;;;;;;;;;10.56;43.49;99008.53;4918673;28;97970;-65
2023/03/08 00:17:17;;;;;;;;;;;;;;;10.55;42.85;99001.56;4908194;28;103694;-66
2023/03/08 00:19:44;;;;;;;;;;;;;;;10.54;43.32;99012.66;4905354;28;102634;-66
2023/03/08 00:22:10;;;;;;;;;;;;;;;10.55;43.23;99016.94;4909865;28;99474;-66
2023/03/08 00:24:36;;;;;;;;;;;;;;;10.53;43.49;99001.09;4903389;28;98119;-66
2023/03/08 00:27:02;;;;;;;;;;;;;;;10.53;43.46;99002.97;4898465;28;98600;-65
2023/03/08 00:29:29;;;;;;;;;;;;;;;10.53;43.25;99013.75;4920514;28;98007;-67
2023/03/08 00:31:55;;;;;;;;;;;;;;;10.52;43.41;99007.56;4892220;28;98186;-66
2023/03/08 00:34:21;;;;;;;;;;;;;;;10.51;43.25;99011.34;4922801;28;99997;-66
2023/03/08 00:36:48;;;;;;;;;;;;;;;10.50;43.28;99008.97;4920585;28;98141;-66
2023/03/08 00:39:15;;;;;;;;;;;;;;;10.49;43.50;99010.88;4918343;28;99147;-66
2023/03/08 00:41:41;;;;;;;;;;;;;;;10.49;43.05;99016.25;4919470;28;98420;-66
2023/03/08 00:44:08;;;;;;;;;;;;;;;10.49;43.14;99007.34;4934380;28;98411;-67
2023/03/08 00:46:34;;;;;;;;;;;;;;;10.47;43.39;99010.38;4901198;28;98519;-67
2023/03/08 00:49:00;;;;;;;;;;;;;;;10.48;43.56;99008.47;4902601;28;97980;-66
2023/03/08 00:51:26;;;;;;;;;;;;;;;10.46;43.42;99005.28;4918293;28;98077;-65
2023/03/08 00:53:53;;;;;;;;;;;;;;;10.45;43.38;99004.50;4909684;28;97976;-68
2023/03/08 00:56:20;;;;;;;;;;;;;;;10.44;43.50;99000.19;4923861;28;98353;-67
2023/03/08 00:58:45;;;;;;;;;;;;;;;10.43;42.83;99001.28;4908989;28;98163;-67
2023/03/08 01:01:15;;;;;;;;;;;;;;;10.45;43.26;99007.19;4907629;28;98233;-65
2023/03/08 01:03:41;;;;;;;;;;;;;;;10.43;43.13;99017.47;4905045;28;99986;-66
2023/03/08 01:06:09;;;;;;;;;;;;;;;10.43;43.34;99016.66;4921572;28;99319;-67
2023/03/08 01:08:36;;;;;;;;;;;;;;;10.43;43.09;99024.75;4909826;28;99469;-67
2023/03/08 01:11:02;;;;;;;;;;;;;;;10.41;42.90;99025.03;4922902;28;98163;-67
2023/03/08 01:13:30;;;;;;;;;;;;;;;10.41;43.16;99029.63;4924417;28;98220;-66
2023/03/08 01:15:59;;;;;;;;;;;;;;;10.39;43.46;99035.31;4909361;28;98729;-65
2023/03/08 01:18:25;;;;;;;;;;;;;;;10.40;43.18;99033.41;4911968;28;103067;-66
2023/03/08 01:20:59;;;;;;;;;;;;;;;10.40;43.07;99033.41;4909196;28;99701;-66
2023/03/08 01:23:25;;;;;;;;;;;;;;;10.39;43.52;99032.63;4903381;28;98166;-66
2023/03/08 01:25:59;;;;;;;;;;;;;;;10.38;43.27;99033.72;4907699;28;98106;-66
2023/03/08 01:28:25;;;;;;;;;;;;;;;10.38;43.15;99038.31;4904471;28;98133;-66
2023/03/08 01:30:52;;;;;;;;;;;;;;;10.37;43.39;99040.19;4920301;28;98030;-65
2023/03/08 01:33:19;;;;;;;;;;;;;;;10.36;43.46;99029.72;4908543;28;97940;-65
2023/03/08 01:35:46;;;;;;;;;;;;;;;10.36;43.12;99033.22;4922670;28;98970;-65
2023/03/08 01:38:12;;;;;;;;;;;;;;;10.36;43.26;99044.00;4898789;28;98911;-65
2023/03/08 01:40:38;;;;;;;;;;;;;;;10.36;43.12;99037.81;4938138;28;100062;-66
2023/03/08 01:43:26;;;;;;;;;;;;;;;10.35;43.51;99033.53;4922293;28;98617;-65
2023/03/08 01:46:16;;;;;;;;;;;;;;;10.34;43.05;99046.19;4920144;28;98205;-66
2023/03/08 01:49:06;;;;;;;;;;;;;;;10.35;43.15;99044.31;4921061;28;98165;-65
2023/03/08 01:52:03;;;;;;;;;;;;;;;10.33;43.48;99052.66;4936853;28;98019;-66
2023/03/08 01:54:34;;;;;;;;;;;;;;;10.32;43.31;99051.88;4953414;28;99576;-67
2023/03/08 01:57:15;;;;;;;;;;;;;;;10.34;43.01;99050.81;4903647;28;98411;-64
2023/03/08 01:59:41;;;;;;;;;;;;;;;10.32;43.25;99051.06;4921989;28;101179;-67
2023/03/08 02:02:07;;;;;;;;;;;;;;;10.32;43.48;99056.47;4908172;28;99434;-66
2023/03/08 02:04:34;;;;;;;;;;;;;;;10.31;42.92;99052.97;4908600;28;97860;-67
2023/03/08 02:07:00;;;;;;;;;;;;;;;10.31;42.99;99052.19;4917512;28;97885;-67
2023/03/08 02:09:26;;;;;;;;;;;;;;;10.31;42.93;99057.56;4920521;28;98460;-66
2023/03/08 02:11:52;;;;;;;;;;;;;;;10.31;43.02;99054.88;4904626;28;111558;-65
2023/03/08 02:14:18;;;;;;;;;;;;;;;10.31;43.54;99055.66;4920314;28;98190;-66
2023/03/08 02:16:45;;;;;;;;;;;;;;;10.30;43.46;99064.84;4918219;28;97938;-66
2023/03/08 02:19:26;;;;;;;;;;;;;;;10.29;43.30;99065.94;4917143;28;97902;-66
2023/03/08 02:21:54;;;;;;;;;;;;;;;10.30;42.95;99062.16;4908425;28;116529;-65
2023/03/08 02:24:24;;;;;;;;;;;;;;;10.29;43.09;99067.81;4904904;28;98832;-67
2023/03/08 02:27:05;;;;;;;;;;;;;;;10.29;43.56;99068.63;4905122;28;104609;-67
2023/03/08 02:29:32;;;;;;;;;;;;;;;10.29;43.22;99070.53;4912375;28;100847;-67
2023/03/08 02:31:58;;;;;;;;;;;;;;;10.28;43.50;99063.53;4920999;28;116419;-67
2023/03/08 02:34:24;;;;;;;;;;;;;;;10.27;42.74;99054.66;4906679;28;98218;-67
2023/03/08 02:36:50;;;;;;;;;;;;;;;10.27;43.17;99067.34;4906018;28;98079;-67
2023/03/08 02:39:16;;;;;;;;;;;;;;;10.26;43.09;99063.84;4922143;28;114459;-65
2023/03/08 02:41:42;;;;;;;;;;;;;;;10.26;43.54;99068.44;4919276;28;99630;-66
2023/03/08 02:44:08;;;;;;;;;;;;;;;10.26;43.21;99052.28;4923027;28;98327;-66
2023/03/08 02:46:34;;;;;;;;;;;;;;;10.25;43.24;99051.47;4908008;28;98311;-67
2023/03/08 02:49:00;;;;;;;;;;;;;;;10.25;43.47;99061.44;4909247;28;98055;-65
2023/03/08 02:51:27;;;;;;;;;;;;;;;10.24;42.88;99070.59;4922263;28;98661;-66
2023/03/08 02:53:53;;;;;;;;;;;;;;;10.24;42.99;99071.38;4941715;28;98129;-65
2023/03/08 02:56:20;;;;;;;;;;;;;;;10.23;42.82;99064.41;4909388;28;98217;-65
2023/03/08 02:58:46;;;;;;;;;;;;;;;10.22;43.18;99062.81;4912712;28;98444;-65
2023/03/08 03:01:12;;;;;;;;;;;;;;;10.21;42.90;99055.81;4906878;28;99579;-67
2023/03/08 03:03:39;;;;;;;;;;;;;;;10.21;43.07;99068.50;4910311;28;98008;-65
2023/03/08 03:06:12;;;;;;;;;;;;;;;10.21;43.19;99058.50;4916466;28;98294;-65
2023/03/08 03:08:38;;;;;;;;;;;;;;;10.21;43.42;99036.19;4918877;28;97956;-65
2023/03/08 03:11:14;;;;;;;;;;;;;;;10.19;43.09;99025.72;4910475;28;98131;-67
2023/03/08 03:13:40;;;;;;;;;;;;;;;10.18;43.28;99045.69;4931513;28;99544;-67
2023/03/08 03:16:11;;;;;;;;;;;;;;;10.19;43.34;99063.41;4918430;28;98978;-67
2023/03/08 03:18:37;;;;;;;;;;;;;;;10.18;42.98;99069.09;4905688;28;99578;-65
2023/03/08 03:21:08;;;;;;;;;;;;;;;10.17;43.44;99057.53;4923256;28;99046;-65
2023/03/08 03:23:34;;;;;;;;;;;;;;;10.17;43.26;99059.41;4936289;28;98116;-64
2023/03/08 03:26:08;;;;;;;;;;;;;;;10.14;43.09;99047.38;4936297;28;98140;-66
2023/03/08 03:28:34;;;;;;;;;;;;;;;10.14;42.85;99051.94;4926026;28;98378;-64
2023/03/08 03:31:00;;;;;;;;;;;;;;;10.14;42.93;99060.81;4907764;28;98183;-66
2023/03/08 03:33:26;;;;;;;;;;;;;;;10.13;42.94;99066.50;4924778;28;97952;-65
2023/03/08 03:35:52;;;;;;;;;;;;;;;10.12;43.48;99078.38;4909268;28;98097;-65
2023/03/08 03:38:19;;;;;;;;;;;;;;;10.10;43.03;99081.38;4910718;28;98088;-67
2023/03/08 03:40:45;;;;;;;;;;;;;;;10.11;43.38;99080.25;4911357;28;98149;-65
2023/03/08 03:43:11;;;;;;;;;;;;;;;10.09;43.17;99083.25;4926116;28;98047;-65
2023/03/08 03:45:37;;;;;;;;;;;;;;;10.08;43.04;99091.63;4937599;28;100046;-65
2023/03/08 03:48:03;;;;;;;;;;;;;;;10.08;43.21;99097.00;4924582;28;98414;-65
2023/03/08 03:50:29;;;;;;;;;;;;;;;10.07;43.43;99092.72;4937657;28;98958;-65
2023/03/08 03:52:56;;;;;;;;;;;;;;;10.07;43.50;99087.34;4923683;28;113593;-66
2023/03/08 03:55:22;;;;;;;;;;;;;;;10.06;43.37;99089.25;4922760;28;99926;-65
2023/03/08 03:57:49;;;;;;;;;;;;;;;10.06;42.78;99091.94;4904411;28;99289;-65
2023/03/08 04:00:16;;;;;;;;;;;;;;;10.06;43.26;99097.31;4921222;28;98036;-65
2023/03/08 04:02:42;;;;;;;;;;;;;;;10.06;42.58;99099.19;4909070;28;109835;-65
2023/03/08 04:05:08;;;;;;;;;;;;;;;10.05;42.95;99093.00;4907679;28;100112;-68
2023/03/08 04:07:34;;;;;;;;;;;;;;;10.04;43.00;99098.69;4932533;28;98065;-68
2023/03/08 04:10:00;;;;;;;;;;;;;;;10.03;43.04;99097.09;4932755;28;98279;-66
2023/03/08 04:12:26;;;;;;;;;;;;;;;10.02;43.24;99099.00;4902149;28;98205;-67
2023/03/08 04:14:53;;;;;;;;;;;;;;;10.02;43.13;99101.69;4935373;28;98280;-67
2023/03/08 04:17:19;;;;;;;;;;;;;;;10.00;42.94;99105.78;4908425;28;97942;-68
2023/03/08 04:19:47;;;;;;;;;;;;;;;10.00;43.06;99101.19;4907585;28;98158;-68
2023/03/08 04:22:13;;;;;;;;;;;;;;;10.00;43.65;99108.47;4903871;28;98286;-66
2023/03/08 04:24:39;;;;;;;;;;;;;;;9.97;43.55;99104.47;4906562;28;98175;-65
2023/03/08 04:27:05;;;;;;;;;;;;;;;9.98;43.04;99099.88;4904759;28;98776;-66
2023/03/08 04:29:31;;;;;;;;;;;;;;;9.98;43.47;99099.88;4923657;28;97900;-66
2023/03/08 04:31:59;;;;;;;;;;;;;;;9.97;43.38;99104.47;4916169;28;108007;-67
2023/03/08 04:34:26;;;;;;;;;;;;;;;9.97;43.25;99103.66;4908320;28;98148;-68
2023/03/08 04:36:52;;;;;;;;;;;;;;;9.96;43.05;99108.25;4907701;28;98958;-66
2023/03/08 04:39:18;;;;;;;;;;;;;;;9.96;43.32;99100.19;4927051;28;98318;-66
2023/03/08 04:41:44;;;;;;;;;;;;;;;9.97;42.87;99107.16;4922517;28;98324;-66
2023/03/08 04:44:10;;;;;;;;;;;;;;;9.97;43.39;99106.34;4924238;28;97877;-67
2023/03/08 04:46:37;;;;;;;;;;;;;;;9.97;42.80;99109.03;4908637;28;97984;-65
2023/03/08 04:49:03;;;;;;;;;;;;;;;9.97;43.35;99106.34;4920394;28;98210;-68
2023/03/08 04:51:29;;;;;;;;;;;;;;;9.97;43.31;99109.03;4906976;28;98753;-65
2023/03/08 04:53:55;;;;;;;;;;;;;;;9.97;42.94;99101.75;4920860;28;100440;-67
2023/03/08 04:56:21;;;;;;;;;;;;;;;9.98;43.68;99099.88;4917178;28;98041;-65
2023/03/08 04:58:47;;;;;;;;;;;;;;;9.98;42.95;99098.00;4918355;28;98462;-68
2023/03/08 05:01:18;;;;;;;;;;;;;;;9.98;42.77;99106.06;4932850;28;98091;-65
2023/03/08 05:03:45;;;;;;;;;;;;;;;9.99;42.62;99104.19;4921078;28;98272;-65
2023/03/08 05:06:12;;;;;;;;;;;;;;;10.00;42.79;99105.78;4906275;28;98025;-64
2023/03/08 05:08:39;;;;;;;;;;;;;;;9.99;43.37;99091.50;4889080;28;100559;-66
2023/03/08 05:11:05;;;;;;;;;;;;;;;10.00;43.47;99086.94;4919729;28;100097;-68
2023/03/08 05:13:33;;;;;;;;;;;;;;;10.00;43.28;99087.72;4900399;28;98354;-65
2023/03/08 05:16:00;;;;;;;;;;;;;;;10.00;43.47;99089.63;4909692;28;97961;-67
2023/03/08 05:18:26;;;;;;;;;;;;;;;10.00;42.88;99090.41;4906259;28;98095;-68
2023/03/08 05:20:54;;;;;;;;;;;;;;;10.00;43.01;99085.03;4921578;28;98120;-67
2023/03/08 05:23:20;;;;;;;;;;;;;;;10.00;43.59;99089.63;4920323;28;98020;-68
2023/03/08 05:25:49;;;;;;;;;;;;;;;10.00;42.55;99095.78;4907156;28;98222;-67
2023/03/08 05:28:15;;;;;;;;;;;;;;;10.00;43.06;99090.41;4920374;28;98092;-67
2023/03/08 05:30:41;;;;;;;;;;;;;;;10.01;43.25;99099.28;4900486;28;97879;-67
2023/03/08 05:33:08;;;;;;;;;;;;;;;10.01;43.47;99101.97;4906855;28;98500;-68
2023/03/08 05:35:34;;;;;;;;;;;;;;;10.00;43.26;99098.50;4907205;28;97878;-68
2023/03/08 05:38:00;;;;;;;;;;;;;;;10.01;43.05;99099.28;4904411;28;99887;-68
2023/03/08 05:40:27;;;;;;;;;;;;;;;10.02;43.25;99104.38;4905665;28;98495;-66
2023/03/08 05:42:54;;;;;;;;;;;;;;;10.01;43.24;99099.28;4930847;28;98805;-68
2023/03/08 05:45:20;;;;;;;;;;;;;;;10.01;43.68;99092.00;4904256;28;98265;-65
2023/03/08 05:47:46;;;;;;;;;;;;;;;10.03;42.89;99103.28;4915328;28;98985;-66
2023/03/08 05:50:12;;;;;;;;;;;;;;;10.03;43.32;99114.06;4901978;28;98178;-64
2023/03/08 05:52:41;;;;;;;;;;;;;;;10.04;43.16;99114.84;4904594;28;97862;-66
2023/03/08 05:55:07;;;;;;;;;;;;;;;10.05;43.30;99121.81;4908190;28;97925;-66
2023/03/08 05:57:35;;;;;;;;;;;;;;;10.06;42.94;99121.56;4920534;28;98149;-65
2023/03/08 06:00:03;;;;;;;;;;;;;;;10.08;43.20;99122.03;4920661;28;98292;-67
2023/03/08 06:02:29;;;;;;;;;;;;;;;10.09;42.99;99125.53;4936535;28;98013;-66
2023/03/08 06:04:55;;;;;;;;;;;;;;;10.10;43.39;99116.38;4940066;28;98009;-67
2023/03/08 06:07:21;;;;;;;;;;;;;;;10.12;43.40;99116.06;4907124;28;100331;-67
2023/03/08 06:09:47;;;;;;;;;;;;;;;10.14;42.90;99124.63;4908116;28;97907;-65
2023/03/08 06:12:13;;;;;;;;;;;;;;;10.15;42.77;99137.03;4921761;28;98086;-66
2023/03/08 06:14:39;;;;;;;;;;;;;;;10.15;43.37;99135.13;4906914;28;119025;-68
2023/03/08 06:17:05;;;;;;;;;;;;;;;10.15;43.31;99127.03;4904415;28;98272;-67
2023/03/08 06:19:32;;;;;;;;;;;;;;;10.18;42.80;99126.47;4939794;28;97917;-68
2023/03/08 06:21:58;;;;;;;;;;;;;;;10.20;42.92;99121.56;4909305;28;98156;-68
2023/03/08 06:24:24;;;;;;;;;;;;;;;10.22;43.06;99107.81;4910846;28;97884;-67
2023/03/08 06:26:50;;;;;;;;;;;;;;;10.24;42.80;99114.47;4927660;28;99972;-66
2023/03/08 06:29:16;;;;;;;;;;;;;;;10.26;43.32;99114.22;4922390;28;98371;-66
2023/03/08 06:31:42;;;;;;;;;;;;;;;10.29;43.06;99113.63;4924110;28;98331;-66
2023/03/08 06:34:08;;;;;;;;;;;;;;;10.31;43.23;99109.53;4911107;28;98845;-66
2023/03/08 06:36:34;;;;;;;;;;;;;;;10.35;43.33;99117.03;4921671;28;109216;-67
2023/03/08 06:39:01;;;;;;;;;;;;;;;10.36;43.02;99122.09;4910266;28;100052;-65
2023/03/08 06:41:28;;;;;;;;;;;;;;;10.38;43.03;99124.53;4919068;28;101033;-66
2023/03/08 06:43:54;;;;;;;;;;;;;;;10.40;43.37;99127.69;4925789;28;99304;-66
2023/03/08 06:46:21;;;;;;;;;;;;;;;10.39;43.04;99129.59;4911336;28;99933;-67
2023/03/08 06:48:47;;;;;;;;;;;;;;;10.40;43.25;99128.50;4909798;28;100567;-65
2023/03/08 06:51:13;;;;;;;;;;;;;;;10.41;42.79;99127.38;4921754;28;99572;-66
2023/03/08 06:53:39;;;;;;;;;;;;;;;10.43;42.73;99124.41;4908502;28;98276;-65
2023/03/08 06:56:06;;;;;;;;;;;;;;;10.45;43.01;99114.13;4924375;28;100107;-67
2023/03/08 06:58:33;;;;;;;;;;;;;;;10.47;42.85;99120.03;4925139;28;98481;-66
2023/03/08 07:00:59;;;;;;;;;;;;;;;10.47;43.06;99120.81;4909467;28;99760;-67
2023/03/08 07:03:26;;;;;;;;;;;;;;;10.50;42.73;99117.53;4924377;28;97825;-68
2023/03/08 07:05:56;;;;;;;;;;;;;;;10.53;43.16;99113.44;4908463;28;97949;-66
2023/03/08 07:08:23;;;;;;;;;;;;;;;10.55;42.80;99127.41;4911227;28;98980;-66
2023/03/08 07:10:49;;;;;;;;;;;;;;;10.57;43.24;99123.34;4910261;28;99712;-66
2023/03/08 07:13:16;;;;;;;;;;;;;;;10.61;42.98;99115.44;4922828;28;98118;-66
2023/03/08 07:15:42;;;;;;;;;;;;;;;10.66;43.28;99136.09;4937629;28;98464;-66
2023/03/08 07:18:08;;;;;;;;;;;;;;;10.67;42.97;99135.00;4938480;28;98434;-66
2023/03/08 07:20:34;;;;;;;;;;;;;;;10.68;42.96;99136.59;4923150;28;97954;-67
2023/03/08 07:23:01;;;;;;;;;;;;;;;10.69;43.18;99141.69;4908153;28;98072;-66
2023/03/08 07:25:27;;;;;;;;;;;;;;;10.72;42.61;99137.59;4901730;28;98877;-66
2023/03/08 07:27:53;;;;;;;;;;;;;;;10.73;42.92;99142.69;4909192;28;97856;-66
2023/03/08 07:30:19;;;;;;;;;;;;;;;10.75;43.21;99126.22;4906598;28;99208;-66
2023/03/08 07:32:45;;;;;;;;;;;;;;;10.80;43.08;99129.59;4924499;28;98362;-66
2023/03/08 07:35:13;;;;;;;;;;;;;;;10.85;42.68;99127.91;4939220;28;98501;-67
2023/03/08 07:37:39;;;;;;;;;;;;;;;10.88;42.93;99125.38;4911344;28;98500;-67
2023/03/08 07:40:06;;;;;;;;;;;;;;;10.94;42.49;99136.88;4908943;28;97956;-66
2023/03/08 07:42:33;;;;;;;;;;;;;;;10.96;42.74;99129.28;4901349;28;98767;-66
2023/03/08 07:44:59;;;;;;;;;;;;;;;10.98;42.70;99127.88;4924035;28;98722;-66
2023/03/08 07:47:25;;;;;;;;;;;;;;;11.02;42.77;99130.78;4938931;28;98630;-66
2023/03/08 07:49:51;;;;;;;;;;;;;;;11.06;42.42;99137.97;4938183;28;99539;-68
2023/03/08 07:52:17;;;;;;;;;;;;;;;11.12;42.65;99135.97;4907880;28;98350;-66
2023/03/08 07:54:43;;;;;;;;;;;;;;;11.19;42.51;99125.53;4915705;28;98119;-65
2023/03/08 07:57:12;;;;;;;;;;;;;;;11.24;42.63;99130.84;4925777;28;97951;-66
2023/03/08 07:59:39;;;;;;;;;;;;;;;11.29;42.82;99129.94;4908179;28;97839;-65
2023/03/08 08:02:05;;;;;;;;;;;;;;;11.33;42.46;99120.13;4896996;28;98070;-66
2023/03/08 08:04:31;;;;;;;;;;;;;;;11.39;42.71;99112.69;4926334;28;97995;-66
2023/03/08 08:06:58;;;;;;;;;;;;;;;11.44;42.41;99116.09;4920433;28;114219;-66
2023/03/08 08:09:24;;;;;;;;;;;;;;;11.50;42.42;99120.25;4924186;28;98423;-66
2023/03/08 08:11:50;;;;;;;;;;;;;;;11.59;42.54;99119.53;4904456;28;98152;-66
2023/03/08 08:14:16;;;;;;;;;;;;;;;11.66;42.33;99119.91;4919641;28;100100;-65
2023/03/08 08:16:42;;;;;;;;;;;;;;;11.72;42.45;99113.28;4908696;28;97996;-66
2023/03/08 08:19:11;;;;;;;;;;;;;;;11.79;42.52;99117.16;4905641;28;99491;-65
2023/03/08 08:21:37;;;;;;;;;;;;;;;11.86;42.53;99108.63;4907359;28;99432;-67
2023/03/08 08:24:04;;;;;;;;;;;;;;;11.97;42.30;99106.47;4908803;28;99781;-67
2023/03/08 08:26:30;;;;;;;;;;;;;;;12.14;42.33;99111.97;4926160;28;98209;-66
2023/03/08 08:28:56;;;;;;;;;;;;;;;12.28;42.03;99112.69;4924138;28;98348;-66
2023/03/08 08:31:24;;;;;;;;;;;;;;;12.39;41.97;99099.69;4908634;28;98082;-66
2023/03/08 08:33:49;;;;;;;;;;;;;;;12.49;42.11;99102.09;4922535;28;98528;-66
2023/03/08 08:36:18;;;;;;;;;;;;;;;12.57;42.09;99097.06;4908847;28;100386;-67
2023/03/08 08:38:45;;;;;;;;;;;;;;;12.63;42.28;99085.00;4918927;28;98300;-67
2023/03/08 08:41:11;;;;;;;;;;;;;;;12.78;41.85;99088.06;4906194;28;98448;-67
2023/03/08 08:43:37;;;;;;;;;;;;;;;13.13;41.52;99084.63;4908089;28;98272;-66
2023/03/08 08:46:04;;;;;;;;;;;;;;;13.39;41.53;99087.34;4906726;28;103413;-67
2023/03/08 08:48:32;;;;;;;;;;;;;;;13.46;41.38;99087.66;4921547;28;99332;-66
2023/03/08 08:50:58;;;;;;;;;;;;;;;13.51;41.49;99088.28;4921683;28;98306;-67
2023/03/08 08:53:24;;;;;;;;;;;;;;;13.57;41.95;99086.22;4920296;28;98053;-66
2023/03/08 08:55:50;;;;;;;;;;;;;;;13.58;41.94;99084.31;4908837;28;98341;-66
2023/03/08 08:58:17;;;;;;;;;;;;;;;13.56;41.92;99081.13;4907954;28;99196;-66
2023/03/08 09:00:43;;;;;;;;;;;;;;;13.58;42.13;99084.31;4910145;28;98379;-66
2023/03/08 09:03:09;;;;;;;;;;;;;;;13.66;41.85;99076.19;4920733;28;98147;-67
2023/03/08 09:05:38;;;;;;;;;;;;;;;13.73;42.02;99076.50;4909488;28;98029;-66
2023/03/08 09:08:04;;;;;;;;;;;;;;;13.79;41.79;99077.09;4903597;28;101636;-67
2023/03/08 09:10:32;;;;;;;;;;;;;;;13.83;41.91;99078.03;4917025;28;98170;-66
2023/03/08 09:12:59;;;;;;;;;;;;;;;13.87;42.03;99073.59;4921662;28;99763;-66
2023/03/08 09:15:25;;;;;;;;;;;;;;;13.97;41.97;99065.13;4908885;28;98661;-67
2023/03/08 09:17:51;;;;;;;;;;;;;;;14.06;41.92;99059.66;4905707;28;98810;-67
2023/03/08 09:20:18;;;;;;;;;;;;;;;14.30;41.62;99048.25;4909309;28;99518;-66
2023/03/08 09:22:44;;;;;;;;;;;;;;;14.48;41.66;99055.19;4922991;28;98169;-67
2023/03/08 09:25:10;;;;;;;;;;;;;;;14.83;41.01;99048.81;4906126;28;99890;-66
2023/03/08 09:27:37;;;;;;;;;;;;;;;14.94;41.08;99042.66;4917279;28;98030;-66
2023/03/08 09:30:04;;;;;;;;;;;;;;;14.98;41.11;99037.38;4918099;28;97938;-67
2023/03/08 09:32:32;;;;;;;;;;;;;;;15.13;41.30;99035.97;4920346;28;98685;-67
2023/03/08 09:34:58;;;;;;;;;;;;;;;15.15;41.52;99029.09;4908746;28;97863;-66
2023/03/08 09:37:24;;;;;;;;;;;;;;;15.31;41.12;99029.28;4908473;28;97846;-68
2023/03/08 09:39:51;;;;;;;;;;;;;;;15.48;41.04;99025.59;4923359;28;97865;-68
2023/03/08 09:42:23;;;;;;;;;;;;;;;15.69;41.04;99022.88;4922529;28;98862;-68
2023/03/08 09:45:07;;;;;;;;;;;;;;;15.87;40.82;99021.53;4924716;28;97984;-68
2023/03/08 09:47:41;;;;;;;;;;;;;;;15.91;40.99;99025.16;4922133;28;98329;-68
2023/03/08 09:50:16;;;;;;;;;;;;;;;16.03;41.10;99023.59;4925806;28;98054;-67
2023/03/08 09:52:45;;;;;;;;;;;;;;;16.17;40.73;99019.44;4921828;28;101529;-67
2023/03/08 09:55:30;;;;;;;;;;;;;;;16.21;40.83;99011.41;4926286;28;98885;-68
2023/03/08 09:58:10;;;;;;;;;;;;;;;16.20;41.01;99005.16;4921994;28;99432;-67
2023/03/08 10:00:37;;;;;;;;;;;;;;;16.28;41.02;99005.41;4913421;28;98222;-67
2023/03/08 10:03:09;;;;;;;;;;;;;;;16.30;41.02;98994.97;4909510;28;98191;-68
2023/03/08 10:05:37;;;;;;;;;;;;;;;16.36;41.12;98999.06;4924011;28;99956;-67
2023/03/08 10:08:16;;;;;;;;;;;;;;;16.39;41.11;98999.16;4935992;28;98275;-67
2023/03/08 10:11:01;;;;;;;;;;;;;;;16.44;41.01;98988.06;4937592;28;99297;-68
2023/03/08 10:13:29;;;;;;;;;;;;;;;16.71;40.79;98988.47;4912207;28;98012;-67
2023/03/08 10:16:09;;;;;;;;;;;;;;;16.86;40.80;98989.72;4935861;28;98290;-66
2023/03/08 10:18:47;;;;;;;;;;;;;;;16.76;40.97;98988.25;4924302;28;97910;-68
2023/03/08 10:21:16;;;;;;;;;;;;;;;16.54;41.36;98991.44;4911651;28;99286;-67
2023/03/08 10:23:43;;;;;;;;;;;;;;;16.42;41.55;98979.44;4923269;28;97978;-67
2023/03/08 10:26:11;;;;;;;;;;;;;;;16.26;41.62;98975.03;4938859;28;98269;-69
2023/03/08 10:28:37;;;;;;;;;;;;;;;16.11;41.83;98971.88;4922666;28;98200;-67
2023/03/08 10:31:16;;;;;;;;;;;;;;;15.95;41.81;98971.75;4925210;28;98139;-69
2023/03/08 10:33:42;;;;;;;;;;;;;;;15.81;42.17;98973.22;4909642;28;99409;-69
2023/03/08 10:36:20;;;;;;;;;;;;;;;15.67;42.09;98973.50;4909205;28;102434;-68
2023/03/08 10:39:05;;;;;;;;;;;;;;;15.51;42.19;98978.78;4940712;28;97893;-67
2023/03/08 10:41:31;;;;;;;;;;;;;;;15.34;42.41;98971.59;4918797;28;98194;-69
2023/03/08 10:43:58;;;;;;;;;;;;;;;15.23;42.45;98976.66;4921554;28;98866;-67
2023/03/08 10:46:27;;;;;;;;;;;;;;;15.13;42.27;98971.66;4910280;28;100270;-67
2023/03/08 10:48:53;;;;;;;;;;;;;;;15.04;42.62;98970.13;4941142;28;98176;-69
2023/03/08 10:51:23;;;;;;;;;;;;;;;14.95;42.31;98964.78;4927009;28;97985;-66
2023/03/08 10:53:57;;;;;;;;;;;;;;;14.88;42.52;98962.59;4911858;28;98179;-67
2023/03/08 10:56:31;;;;;;;;;;;;;;;14.80;42.43;98959.94;4924525;28;97913;-67
2023/03/08 10:58:57;;;;;;;;;;;;;;;14.72;42.47;98950.75;4923269;28;99052;-70
2023/03/08 11:01:33;;;;;;;;;;;;;;;14.68;42.69;98947.13;4910512;28;98008;-69
2023/03/08 11:04:05;;;;;;;;;;;;;;;14.62;42.78;98945.72;4923028;28;98271;-70
2023/03/08 11:06:34;;;;;;;;;;;;;;;14.59;42.50;98946.41;4911600;28;99414;-66
2023/03/08 11:09:01;;;;;;;;;;;;;;;14.57;42.69;98935.06;4910369;28;98035;-67
2023/03/08 11:11:27;;;;;;;;;;;;;;;14.57;42.76;98926.94;4922504;28;102011;-69
2023/03/08 11:13:54;;;;;;;;;;;;;;;14.56;42.63;98911.81;4922041;28;98242;-67
2023/03/08 11:16:31;;;;;;;;;;;;;;;14.55;42.48;98910.22;4927570;28;97999;-69
2023/03/08 11:19:23;;;;;;;;;;;;;;;14.54;42.71;98908.63;4935069;28;99077;-69
2023/03/08 11:22:27;;;;;;;;;;;;;;;14.50;42.52;98916.63;4911159;28;98000;-69
2023/03/08 11:25:08;;;;;;;;;;;;;;;14.44;42.79;98909.78;4927143;28;98860;-69
2023/03/08 11:27:36;;;;;;;;;;;;;;;14.38;42.67;98900.25;4939562;28;98122;-69
2023/03/08 11:30:21;;;;;;;;;;;;;;;14.36;42.43;98897.09;4939329;28;98185;-68
2023/03/08 11:33:24;;;;;;;;;;;;;;;14.31;42.48;98881.03;4925975;28;97883;-66
2023/03/08 11:36:20;;;;;;;;;;;;;;;14.29;42.34;98877.84;4940674;28;98182;-66
2023/03/08 11:39:00;;;;;;;;;;;;;;;14.26;42.46;98871.16;4924494;28;99625;-66
2023/03/08 11:41:29;;;;;;;;;;;;;;;14.23;42.67;98877.25;4920134;28;98137;-66
2023/03/08 11:44:07;;;;;;;;;;;;;;;14.21;42.50;98860.53;4923718;28;98086;-69
2023/03/08 11:46:58;;;;;;;;;;;;;;;14.20;42.65;98865.16;4935899;28;98449;-68
2023/03/08 11:49:48;;;;;;;;;;;;;;;14.18;42.45;98847.63;4938852;28;98236;-68
2023/03/08 11:52:27;;;;;;;;;;;;;;;14.17;42.67;98838.72;4906368;28;98186;-66
2023/03/08 11:55:25;;;;;;;;;;;;;;;14.23;42.54;98839.31;4925464;28;98055;-66
2023/03/08 11:58:10;;;;;;;;;;;;;;;14.38;42.38;98827.06;4874963;28;98487;-68
2023/03/08 12:00:41;;;;;;;;;;;;;;;14.52;42.38;98824.91;4921684;28;99957;-67
2023/03/08 12:03:18;;;;;;;;;;;;;;;14.60;42.19;98812.41;4919580;28;99276;-69
2023/03/08 12:06:02;;;;;;;;;;;;;;;14.64;42.12;98808.69;4903743;28;98093;-68
2023/03/08 12:08:41;;;;;;;;;;;;;;;14.72;41.94;98798.88;4922525;28;98131;-67
2023/03/08 12:11:28;;;;;;;;;;;;;;;14.73;42.02;98795.03;4920482;28;100160;-69
2023/03/08 12:14:05;;;;;;;;;;;;;;;14.57;42.40;98788.66;4917979;28;99525;-66
2023/03/08 12:16:49;;;;;;;;;;;;;;;14.47;42.32;98787.16;4936902;28;98254;-66
2023/03/08 12:19:38;;;;;;;;;;;;;;;14.44;42.66;98779.69;4951228;28;100475;-69
2023/03/08 12:22:29;;;;;;;;;;;;;;;14.41;42.65;98774.91;4942088;28;99123;-68
2023/03/08 12:25:13;;;;;;;;;;;;;;;14.40;42.70;98760.56;4924474;28;98004;-66
2023/03/08 12:27:44;;;;;;;;;;;;;;;14.35;42.64;98770.84;4927227;28;98674;-69
2023/03/08 12:30:29;;;;;;;;;;;;;;;14.32;42.20;98768.78;4923660;28;98316;-66
2023/03/08 12:32:57;;;;;;;;;;;;;;;14.30;42.28;98760.19;4940775;28;98527;-67
2023/03/08 12:35:24;;;;;;;;;;;;;;;14.24;42.52;98759.59;4924628;28;97788;-70
2023/03/08 12:38:18;;;;;;;;;;;;;;;14.15;42.81;98748.84;4920935;28;98250;-69
2023/03/08 12:40:44;;;;;;;;;;;;;;;14.07;42.66;98759.72;4929097;28;100092;-66
2023/03/08 12:43:13;;;;;;;;;;;;;;;14.02;42.54;98746.41;4938780;28;99955;-69
2023/03/08 12:45:41;;;;;;;;;;;;;;;13.98;42.77;98747.06;4954556;28;97979;-69
2023/03/08 12:48:22;;;;;;;;;;;;;;;13.96;42.91;98749.31;4937152;28;98067;-69
2023/03/08 12:50:55;;;;;;;;;;;;;;;13.94;42.64;98748.84;4907317;28;100060;-66
2023/03/08 12:53:42;;;;;;;;;;;;;;;13.92;42.73;98747.59;4939416;28;98449;-66
2023/03/08 12:56:20;;;;;;;;;;;;;;;13.87;42.70;98750.50;4925937;28;98037;-69